createdAt,value
2018-12-18T00:00:23.932Z,99.90
2018-12-18T00:02:56.713Z,99.90
2018-12-18T00:05:36.013Z,99.90
2018-12-18T00:08:08.034Z,99.90
2018-12-18T00:10:43.948Z,99.90
2018-12-18T00:13:14.922Z,99.90
2018-12-18T00:15:47.333Z,99.90
2018-12-18T00:18:18.792Z,99.90
2018-12-18T00:20:50.832Z,99.90
2018-12-18T00:23:21.972Z,99.90
2018-12-18T00:25:52.631Z,99.90
2018-12-18T00:28:24.548Z,99.90
2018-12-18T00:30:55.632Z,99.90
2018-12-18T00:33:26.695Z,99.90
2018-12-18T00:35:58.013Z,99.90
2018-12-18T00:38:29.412Z,99.90
2018-12-18T00:41:00.592Z,99.90
2018-12-18T00:43:31.104Z,99.90
2018-12-18T00:46:02.493Z,99.90
2018-12-18T00:48:34.193Z,99.90
2018-12-18T00:51:05.553Z,99.90
2018-12-18T00:53:36.573Z,99.90
2018-12-18T00:56:07.309Z,99.90
2018-12-18T00:58:38.673Z,99.90
2018-12-18T01:01:09.503Z,99.90
2018-12-18T01:03:40.793Z,99.90
2018-12-18T01:06:12.093Z,99.90
2018-12-18T01:08:42.853Z,99.90
2018-12-18T01:11:13.652Z,99.90
2018-12-18T01:13:44.576Z,99.90
2018-12-18T01:16:15.614Z,99.90
2018-12-18T01:18:46.652Z,99.90
2018-12-18T01:21:17.475Z,99.90
2018-12-18T01:23:49.834Z,99.90
2018-12-18T01:26:21.053Z,99.90
2018-12-18T01:28:52.055Z,99.90
2018-12-18T01:31:22.895Z,99.90
2018-12-18T01:33:59.314Z,99.90
2018-12-18T01:36:27.475Z,99.90
2018-12-18T01:38:59.232Z,99.90
2018-12-18T01:41:30.011Z,99.90
2018-12-18T01:44:01.215Z,99.90
2018-12-18T01:46:32.817Z,99.90
2018-12-18T01:49:04.374Z,99.90
2018-12-18T01:51:35.454Z,99.90
2018-12-18T01:54:06.038Z,99.90
2018-12-18T01:56:37.394Z,99.90
2018-12-18T01:59:08.414Z,99.90
2018-12-18T02:01:39.495Z,99.90
2018-12-18T02:04:10.217Z,99.90
2018-12-18T02:06:41.194Z,99.90
2018-12-18T02:09:12.565Z,99.90
2018-12-18T02:11:43.596Z,99.90
2018-12-18T02:14:14.975Z,99.90
2018-12-18T02:16:47.634Z,99.90
2018-12-18T02:19:18.934Z,99.90
2018-12-18T02:21:49.773Z,99.90
2018-12-18T02:24:21.518Z,99.90
2018-12-18T02:26:52.774Z,99.90
2018-12-18T02:29:24.374Z,99.90
2018-12-18T02:31:55.134Z,99.90
2018-12-18T02:34:26.135Z,99.90
2018-12-18T02:36:57.874Z,99.90
2018-12-18T02:39:29.235Z,99.90
2018-12-18T02:41:59.895Z,99.90
2018-12-18T02:44:31.575Z,99.90
2018-12-18T02:47:03.554Z,99.90
2018-12-18T02:49:34.656Z,99.90
2018-12-18T02:52:05.246Z,99.90
2018-12-18T02:54:35.982Z,99.90
2018-12-18T02:57:06.995Z,99.90
2018-12-18T03:02:36.198Z,99.90
2018-12-18T03:05:09.055Z,99.90
2018-12-18T03:07:40.415Z,99.90
2018-12-18T03:10:11.776Z,99.90
2018-12-18T03:12:45.076Z,99.90
2018-12-18T03:15:17.755Z,99.90
2018-12-18T03:17:48.507Z,99.90
2018-12-18T03:20:19.695Z,99.90
2018-12-18T03:22:51.594Z,99.90
2018-12-18T03:25:23.161Z,99.90
2018-12-18T03:27:54.096Z,99.90
2018-12-18T03:30:25.222Z,99.90
2018-12-18T03:32:59.042Z,99.90
2018-12-18T03:35:30.039Z,99.90
2018-12-18T03:38:00.622Z,99.90
2018-12-18T03:40:32.258Z,99.90
2018-12-18T03:43:03.638Z,99.90
2018-12-18T03:45:34.776Z,99.90
2018-12-18T03:48:07.258Z,99.90
2018-12-18T03:50:38.153Z,99.90
2018-12-18T03:53:09.376Z,99.90
2018-12-18T03:55:40.240Z,99.90
2018-12-18T03:58:11.777Z,99.90
2018-12-18T04:00:42.843Z,99.90
2018-12-18T04:03:14.137Z,99.90
2018-12-18T04:05:45.206Z,99.90
2018-12-18T04:08:16.093Z,99.90
2018-12-18T04:10:47.554Z,99.90
2018-12-18T04:13:18.094Z,99.90
2018-12-18T04:15:49.774Z,99.90
2018-12-18T04:18:20.756Z,99.90
2018-12-18T04:20:51.595Z,99.90
2018-12-18T04:23:22.404Z,99.90
2018-12-18T04:25:55.655Z,99.90
2018-12-18T04:28:27.275Z,99.90
2018-12-18T04:30:58.215Z,99.90
2018-12-18T04:33:29.236Z,99.90
2018-12-18T04:36:00.597Z,99.90
2018-12-18T04:38:31.776Z,99.90
2018-12-18T04:41:03.155Z,99.90
2018-12-18T04:43:34.656Z,99.90
2018-12-18T04:46:05.904Z,99.90
2018-12-18T04:48:38.535Z,99.90
2018-12-18T04:51:09.569Z,99.90
2018-12-18T04:53:41.140Z,99.90
2018-12-18T04:56:12.736Z,99.90
2018-12-18T04:58:44.148Z,99.90
2018-12-18T05:01:14.931Z,99.90
2018-12-18T05:03:46.177Z,99.90
2018-12-18T05:06:22.369Z,99.90
2018-12-18T05:08:53.837Z,99.90
2018-12-18T05:11:24.783Z,99.90
2018-12-18T05:13:55.569Z,99.90
2018-12-18T05:16:26.836Z,99.90
2018-12-18T05:18:57.656Z,99.90
2018-12-18T05:21:29.303Z,99.90
2018-12-18T05:24:00.383Z,99.90
2018-12-18T05:26:35.076Z,99.90
2018-12-18T05:29:06.776Z,99.90
2018-12-18T05:31:37.278Z,99.90
2018-12-18T05:34:07.988Z,99.90
2018-12-18T05:36:39.835Z,99.90
2018-12-18T05:39:10.615Z,99.90
2018-12-18T05:41:41.696Z,99.90
2018-12-18T05:44:14.673Z,99.90
2018-12-18T05:46:45.877Z,99.90
2018-12-18T05:49:17.056Z,99.90
2018-12-18T05:51:48.559Z,99.90
2018-12-18T05:54:20.735Z,99.90
2018-12-18T05:56:52.479Z,99.90
2018-12-18T05:59:23.395Z,99.90
2018-12-18T06:01:54.199Z,99.90
2018-12-18T06:04:25.537Z,99.90
2018-12-18T06:06:56.897Z,99.90
2018-12-18T06:09:27.937Z,99.90
2018-12-18T06:11:59.316Z,99.90
2018-12-18T06:14:30.500Z,99.90
2018-12-18T06:17:02.059Z,99.90
2018-12-18T06:19:33.202Z,99.90
2018-12-18T06:22:04.413Z,99.90
2018-12-18T06:24:35.575Z,99.90
2018-12-18T06:27:06.697Z,99.90
2018-12-18T06:29:38.817Z,99.90
2018-12-18T06:32:09.757Z,99.90
2018-12-18T06:34:40.898Z,99.90
2018-12-18T06:37:12.839Z,99.90
2018-12-18T06:39:43.804Z,99.90
2018-12-18T06:42:15.637Z,99.90
2018-12-18T06:44:46.680Z,99.90
2018-12-18T06:47:17.320Z,99.90
2018-12-18T06:49:48.457Z,99.90
2018-12-18T06:52:19.921Z,99.90
2018-12-18T06:54:50.855Z,99.90
2018-12-18T06:57:22.098Z,99.90
2018-12-18T06:59:52.875Z,99.90
2018-12-18T07:02:24.357Z,99.90
2018-12-18T07:04:55.619Z,99.90
2018-12-18T07:07:26.436Z,99.90
2018-12-18T07:09:57.389Z,99.90
2018-12-18T07:12:28.056Z,99.90
2018-12-18T07:14:59.398Z,99.90
2018-12-18T07:17:30.837Z,99.90
2018-12-18T07:20:02.040Z,99.90
2018-12-18T07:22:34.496Z,99.90
2018-12-18T07:25:05.855Z,99.90
2018-12-18T07:27:37.207Z,99.90
2018-12-18T07:30:08.017Z,99.90
2018-12-18T07:32:39.295Z,99.90
2018-12-18T07:35:10.657Z,99.90
2018-12-18T07:37:42.017Z,99.90
2018-12-18T07:40:13.518Z,99.90
2018-12-18T07:42:45.037Z,99.90
2018-12-18T07:45:15.638Z,99.90
2018-12-18T07:47:46.639Z,99.90
2018-12-18T07:50:17.856Z,99.90
2018-12-18T07:52:50.317Z,99.90
2018-12-18T07:55:21.157Z,99.90
2018-12-18T07:57:51.779Z,99.90
2018-12-18T08:00:23.941Z,99.90
2018-12-18T08:02:54.876Z,99.90
2018-12-18T08:05:29.907Z,99.90
2018-12-18T08:07:59.941Z,99.90
2018-12-18T08:10:30.930Z,99.90
2018-12-18T08:13:02.437Z,99.90
2018-12-18T08:15:33.374Z,99.90
2018-12-18T08:18:04.419Z,99.90
2018-12-18T08:20:35.796Z,99.90
2018-12-18T08:23:07.138Z,99.90
2018-12-18T08:25:37.887Z,99.90
2018-12-18T08:28:09.217Z,99.90
2018-12-18T08:30:40.597Z,99.90
2018-12-18T08:33:12.787Z,99.90
2018-12-18T08:35:43.958Z,99.90
2018-12-18T08:38:14.776Z,99.90
2018-12-18T08:40:46.141Z,99.90
2018-12-18T08:43:17.121Z,99.90
2018-12-18T08:45:49.056Z,99.90
2018-12-18T08:48:20.379Z,99.90
2018-12-18T08:50:51.295Z,99.90
2018-12-18T08:53:22.096Z,99.90
2018-12-18T08:55:53.237Z,99.90
2018-12-18T08:58:24.642Z,99.90
2018-12-18T09:00:55.740Z,99.90
2018-12-18T09:03:26.758Z,99.90
2018-12-18T09:05:57.585Z,99.90
2018-12-18T09:08:31.335Z,99.90
2018-12-18T09:11:02.036Z,99.90
2018-12-18T09:13:33.056Z,99.90
2018-12-18T09:16:06.016Z,99.90
2018-12-18T09:18:36.831Z,99.90
2018-12-18T09:21:07.880Z,99.90
2018-12-18T09:23:38.836Z,99.90
2018-12-18T09:26:10.196Z,99.90
2018-12-18T09:28:40.892Z,99.90
2018-12-18T09:31:11.318Z,99.90
2018-12-18T09:33:42.440Z,99.90
2018-12-18T09:36:13.695Z,99.90
2018-12-18T09:38:49.790Z,99.90
2018-12-18T09:41:25.959Z,99.90
2018-12-18T09:44:01.574Z,99.90
2018-12-18T09:46:32.939Z,99.90
2018-12-18T09:49:04.258Z,99.90
2018-12-18T09:51:35.937Z,99.90
2018-12-18T09:54:07.338Z,99.90
2018-12-18T09:56:43.046Z,99.90
2018-12-18T09:59:13.952Z,99.90
2018-12-18T10:01:45.785Z,99.90
2018-12-18T10:04:16.599Z,99.90
2018-12-18T10:06:48.147Z,99.90
2018-12-18T10:09:18.876Z,99.90
2018-12-18T10:11:49.515Z,99.90
2018-12-18T10:14:20.536Z,99.90
2018-12-18T10:16:51.456Z,99.90
2018-12-18T10:19:22.068Z,99.90
2018-12-18T10:21:52.880Z,99.90
2018-12-18T10:24:24.576Z,99.90
2018-12-18T10:26:55.438Z,99.90
2018-12-18T10:29:26.163Z,99.90
2018-12-18T10:31:56.993Z,99.90
2018-12-18T10:34:28.437Z,99.90
2018-12-18T10:37:00.418Z,99.90
2018-12-18T10:39:32.095Z,99.90
2018-12-18T10:42:03.459Z,99.90
2018-12-18T10:44:34.701Z,99.90
2018-12-18T10:47:05.577Z,99.90
2018-12-18T10:49:36.736Z,99.90
2018-12-18T10:52:07.656Z,99.90
2018-12-18T10:54:38.039Z,99.90
2018-12-18T10:57:09.116Z,99.90
2018-12-18T10:59:40.816Z,99.90
2018-12-18T11:02:11.819Z,99.90
2018-12-18T11:04:43.038Z,99.90
2018-12-18T11:07:13.864Z,99.90
2018-12-18T11:09:44.641Z,99.90
2018-12-18T11:12:18.176Z,99.90
2018-12-18T11:14:49.317Z,99.90
2018-12-18T11:17:19.965Z,99.90
2018-12-18T11:19:51.050Z,99.90
2018-12-18T11:22:22.276Z,99.90
2018-12-18T11:24:53.240Z,99.90
2018-12-18T11:27:23.926Z,99.90
2018-12-18T11:29:56.871Z,99.90
2018-12-18T11:32:33.146Z,99.90
2018-12-18T11:35:01.256Z,99.90
2018-12-18T11:37:34.060Z,99.90
2018-12-18T11:40:05.116Z,99.90
2018-12-18T11:42:36.116Z,99.90
2018-12-18T11:45:07.456Z,99.90
2018-12-18T11:47:39.136Z,99.90
2018-12-18T11:50:10.795Z,99.90
2018-12-18T11:52:41.679Z,99.90
2018-12-18T11:55:12.595Z,97.00
2018-12-18T11:57:43.660Z,92.80
2018-12-18T12:00:16.721Z,90.30
2018-12-18T12:02:47.999Z,85.70
2018-12-18T12:05:20.898Z,76.70
2018-12-18T12:07:51.695Z,65.40
2018-12-18T12:10:22.677Z,58.30
2018-12-18T12:12:54.185Z,51.50
2018-12-18T12:15:24.603Z,48.30
2018-12-18T12:17:55.956Z,46.80
2018-12-18T12:20:26.810Z,45.40
2018-12-18T12:22:57.774Z,44.40
2018-12-18T12:25:29.019Z,44.40
2018-12-18T12:28:04.835Z,43.90
2018-12-18T12:30:36.716Z,44.00
2018-12-18T12:33:08.096Z,44.40
2018-12-18T12:35:39.255Z,44.60
2018-12-18T12:38:10.059Z,44.60
2018-12-18T12:40:41.075Z,45.50
2018-12-18T12:43:12.496Z,45.90
2018-12-18T12:45:43.596Z,47.40
2018-12-18T12:48:14.570Z,52.50
2018-12-18T12:50:45.373Z,55.40
2018-12-18T12:53:16.179Z,57.30
2018-12-18T12:55:47.173Z,59.20
2018-12-18T12:58:18.341Z,58.90
2018-12-18T13:00:49.898Z,58.20
2018-12-18T13:03:20.328Z,59.00
2018-12-18T13:05:50.358Z,62.00
2018-12-18T13:08:21.235Z,63.40
2018-12-18T13:10:52.877Z,66.90
2018-12-18T13:13:23.818Z,69.80
2018-12-18T13:15:54.494Z,74.00
2018-12-18T13:18:24.635Z,75.10
2018-12-18T13:20:55.698Z,75.90
2018-12-18T13:23:26.091Z,75.40
2018-12-18T13:25:56.334Z,77.40
2018-12-18T13:28:26.725Z,79.10
2018-12-18T13:30:57.755Z,77.40
2018-12-18T13:33:28.514Z,75.60
2018-12-18T13:35:59.614Z,75.10
2018-12-18T13:38:30.755Z,77.00
2018-12-18T13:41:01.776Z,82.40
2018-12-18T13:43:32.434Z,89.50
2018-12-18T13:46:02.980Z,91.80
2018-12-18T13:48:34.073Z,94.90
2018-12-18T13:51:05.213Z,97.60
2018-12-18T13:53:37.676Z,99.90
2018-12-18T13:56:09.201Z,99.90
2018-12-18T13:58:40.074Z,99.90
2018-12-18T14:01:11.258Z,99.90
2018-12-18T14:03:41.929Z,99.90
2018-12-18T14:06:12.835Z,99.90
2018-12-18T14:08:43.454Z,99.90
2018-12-18T14:11:14.412Z,99.90
2018-12-18T14:13:45.414Z,99.90
2018-12-18T14:16:15.998Z,99.90
2018-12-18T14:18:46.574Z,99.90
2018-12-18T14:21:16.875Z,99.90
2018-12-18T14:23:47.899Z,99.90
2018-12-18T14:26:18.877Z,99.90
2018-12-18T14:28:49.112Z,99.90
2018-12-18T14:31:19.777Z,99.90
2018-12-18T14:33:50.414Z,99.90
2018-12-18T14:36:21.097Z,99.90
2018-12-18T14:38:51.574Z,99.90
2018-12-18T14:41:22.174Z,99.90
2018-12-18T14:43:53.214Z,99.90
2018-12-18T14:46:24.474Z,99.90
2018-12-18T14:48:55.934Z,99.90
2018-12-18T14:51:26.968Z,99.90
2018-12-18T14:53:57.714Z,99.90
2018-12-18T14:56:28.263Z,99.90
2018-12-18T14:58:59.222Z,99.90
2018-12-18T15:01:29.816Z,99.90
2018-12-18T15:04:00.277Z,99.90
2018-12-18T15:06:31.016Z,99.90
2018-12-18T15:09:01.537Z,99.90
2018-12-18T15:11:33.078Z,99.90
2018-12-18T15:14:03.376Z,99.90
2018-12-18T15:16:33.934Z,99.90
2018-12-18T15:19:06.281Z,99.90
2018-12-18T15:21:37.216Z,99.90
2018-12-18T15:24:08.095Z,99.90
2018-12-18T15:26:38.996Z,99.90
2018-12-18T15:29:09.755Z,99.90
2018-12-18T15:31:40.664Z,99.90
2018-12-18T15:34:11.455Z,99.90
2018-12-18T15:36:42.435Z,99.90
2018-12-18T15:39:13.599Z,99.90
2018-12-18T15:41:45.335Z,99.90
2018-12-18T15:44:16.218Z,99.90
2018-12-18T15:46:46.755Z,99.90
2018-12-18T15:49:17.236Z,99.90
2018-12-18T15:51:48.115Z,99.90
2018-12-18T15:54:18.863Z,99.90
2018-12-18T15:56:49.795Z,99.90
2018-12-18T15:59:21.223Z,99.90
2018-12-18T16:01:51.401Z,99.90
2018-12-18T16:04:21.815Z,99.90
2018-12-18T16:06:52.219Z,99.90
2018-12-18T16:09:23.819Z,99.90
2018-12-18T16:11:55.092Z,99.90
2018-12-18T16:14:26.575Z,99.90
2018-12-18T16:16:57.035Z,99.90
2018-12-18T16:19:27.790Z,99.90
2018-12-18T16:21:59.661Z,99.90
2018-12-18T16:24:30.067Z,99.90
2018-12-18T16:27:00.559Z,99.90
2018-12-18T16:29:31.094Z,99.90
2018-12-18T16:32:01.853Z,99.90
2018-12-18T16:34:32.376Z,99.90
2018-12-18T16:37:03.161Z,99.90
2018-12-18T16:39:34.716Z,99.90
2018-12-18T16:42:05.743Z,99.90
2018-12-18T16:44:36.167Z,99.90
2018-12-18T16:47:07.177Z,99.90
2018-12-18T16:49:37.900Z,99.90
2018-12-18T16:52:08.497Z,99.90
2018-12-18T16:54:39.436Z,99.90
2018-12-18T16:57:13.302Z,99.90
2018-12-18T16:59:43.003Z,99.90
2018-12-18T17:02:13.798Z,99.90
2018-12-18T17:04:44.417Z,99.90
2018-12-18T17:07:14.656Z,99.90
2018-12-18T17:09:45.056Z,99.90
2018-12-18T17:12:15.345Z,99.90
2018-12-18T17:14:46.048Z,99.90
2018-12-18T17:17:16.896Z,99.90
2018-12-18T17:19:48.877Z,99.90
2018-12-18T17:22:21.097Z,99.90
2018-12-18T17:24:52.022Z,99.90
2018-12-18T17:27:25.068Z,99.90
2018-12-18T17:29:56.177Z,99.90
2018-12-18T17:32:26.976Z,99.90
2018-12-18T17:34:58.176Z,99.90
2018-12-18T17:37:36.056Z,99.90
2018-12-18T17:40:02.815Z,99.90
2018-12-18T17:42:33.056Z,99.90
2018-12-18T17:45:04.316Z,99.90
2018-12-18T17:47:34.917Z,99.90
2018-12-18T17:50:08.196Z,99.90
2018-12-18T17:52:39.296Z,99.90
2018-12-18T17:55:10.236Z,99.90
2018-12-18T17:57:40.353Z,99.90
2018-12-18T18:00:11.056Z,99.90
2018-12-18T18:02:41.757Z,99.90
2018-12-18T18:05:13.749Z,99.90
2018-12-18T18:07:44.644Z,99.90
2018-12-18T18:10:15.157Z,99.90
2018-12-18T18:12:47.905Z,99.90
2018-12-18T18:15:18.891Z,99.90
2018-12-18T18:17:49.360Z,99.90
2018-12-18T18:20:20.441Z,99.90
2018-12-18T18:22:51.117Z,99.90
2018-12-18T18:25:21.574Z,99.90
2018-12-18T18:27:52.897Z,99.90
2018-12-18T18:30:23.437Z,99.90
2018-12-18T18:32:53.736Z,99.90
2018-12-18T18:35:24.498Z,99.90
2018-12-18T18:37:55.362Z,99.90
2018-12-18T18:40:26.318Z,99.90
2018-12-18T18:42:57.336Z,99.90
2018-12-18T18:45:27.777Z,99.90
2018-12-18T18:47:59.320Z,99.90
2018-12-18T18:50:29.780Z,99.90
2018-12-18T18:53:00.657Z,99.90
2018-12-18T18:55:38.217Z,99.90
2018-12-18T18:58:21.790Z,99.90
2018-12-18T19:00:52.736Z,99.90
2018-12-18T19:03:23.338Z,99.90
2018-12-18T19:05:54.324Z,99.90
2018-12-18T19:08:26.497Z,99.90
2018-12-18T19:10:57.296Z,99.90
2018-12-18T19:13:28.158Z,99.90
2018-12-18T19:16:00.256Z,99.90
2018-12-18T19:18:31.136Z,99.90
2018-12-18T19:21:01.497Z,99.90
2018-12-18T19:23:32.400Z,99.90
2018-12-18T19:26:03.156Z,99.90
2018-12-18T19:28:34.456Z,99.90
2018-12-18T19:31:05.270Z,99.90
2018-12-18T19:33:36.947Z,99.90
2018-12-18T19:36:08.301Z,99.90
2018-12-18T19:38:38.895Z,99.90
2018-12-18T19:41:10.016Z,99.90
2018-12-18T19:43:40.562Z,99.90
2018-12-18T19:49:06.757Z,99.90
2018-12-18T19:51:38.877Z,99.90
2018-12-18T19:54:09.899Z,99.90
2018-12-18T19:56:41.276Z,99.90
2018-12-18T19:59:13.241Z,99.90
2018-12-18T20:01:44.583Z,99.90
2018-12-18T20:04:15.657Z,99.90
2018-12-18T20:06:47.236Z,99.90
2018-12-18T20:09:19.636Z,99.90
2018-12-18T20:11:50.547Z,99.90
2018-12-18T20:14:22.151Z,99.90
2018-12-18T20:16:53.396Z,99.90
2018-12-18T20:19:24.677Z,99.90
2018-12-18T20:21:56.399Z,99.90
2018-12-18T20:24:27.816Z,99.90
2018-12-18T20:26:58.503Z,99.90
2018-12-18T20:29:31.317Z,99.90
2018-12-18T20:32:15.799Z,99.90
2018-12-18T20:34:47.314Z,99.90
2018-12-18T20:37:19.500Z,99.90
2018-12-18T20:39:51.817Z,99.90
2018-12-18T20:42:24.660Z,99.90
2018-12-18T20:44:55.735Z,99.90
2018-12-18T20:47:27.017Z,99.90
2018-12-18T20:49:57.717Z,99.90
2018-12-18T20:52:28.277Z,99.90
2018-12-18T20:54:59.197Z,99.90
2018-12-18T20:57:29.727Z,99.90
2018-12-18T21:00:01.423Z,99.90
2018-12-18T21:02:31.956Z,99.90
2018-12-18T21:05:05.212Z,99.90
2018-12-18T21:07:36.576Z,99.90
2018-12-18T21:10:09.902Z,99.90
2018-12-18T21:12:40.595Z,99.90
2018-12-18T21:15:10.843Z,99.90
2018-12-18T21:17:41.658Z,99.90
2018-12-18T21:20:12.746Z,99.90
2018-12-18T21:22:43.644Z,99.90
2018-12-18T21:25:18.963Z,99.90
2018-12-18T21:27:47.478Z,99.90
2018-12-18T21:30:20.470Z,99.90
2018-12-18T21:32:52.469Z,99.90
2018-12-18T21:35:22.955Z,99.90
2018-12-18T21:37:53.402Z,99.90
2018-12-18T21:40:23.999Z,99.90
2018-12-18T21:42:54.782Z,99.90
2018-12-18T21:45:25.682Z,99.90
2018-12-18T21:47:56.676Z,99.90
2018-12-18T21:50:27.317Z,99.90
2018-12-18T21:52:57.935Z,99.90
2018-12-18T21:55:29.038Z,99.90
2018-12-18T21:57:59.755Z,99.90
2018-12-18T22:00:30.695Z,99.90
2018-12-18T22:03:01.613Z,99.90
2018-12-18T22:05:32.713Z,99.90
2018-12-18T22:08:03.536Z,99.90
2018-12-18T22:10:34.235Z,99.90
2018-12-18T22:13:05.405Z,99.90
2018-12-18T22:15:36.251Z,99.90
2018-12-18T22:18:06.717Z,99.90
2018-12-18T22:20:37.275Z,99.90
2018-12-18T22:23:08.857Z,99.90
2018-12-18T22:25:39.630Z,99.90
2018-12-18T22:28:10.015Z,99.90
2018-12-18T22:30:41.276Z,99.90
2018-12-18T22:33:12.304Z,99.90
2018-12-18T22:35:43.003Z,99.90
2018-12-18T22:38:13.819Z,99.90
2018-12-18T22:40:44.353Z,99.90
2018-12-18T22:43:14.573Z,99.90
2018-12-18T22:45:44.815Z,99.90
2018-12-18T22:48:15.856Z,99.90
2018-12-18T22:50:46.214Z,99.90
2018-12-18T22:53:16.437Z,99.90
2018-12-18T22:55:47.235Z,99.90
2018-12-18T22:58:17.456Z,99.90
2018-12-18T23:00:56.403Z,99.90
2018-12-18T23:03:26.835Z,99.90
2018-12-18T23:05:57.475Z,99.90
2018-12-18T23:08:28.015Z,99.90
2018-12-18T23:10:59.494Z,99.90
2018-12-18T23:13:30.075Z,99.90
2018-12-18T23:16:00.600Z,99.90
2018-12-18T23:18:31.032Z,99.90
2018-12-18T23:21:02.655Z,99.90
2018-12-18T23:23:34.015Z,99.90
2018-12-18T23:26:05.074Z,99.90
2018-12-18T23:28:36.137Z,99.90
2018-12-18T23:31:06.814Z,99.90
2018-12-18T23:33:37.950Z,99.90
2018-12-18T23:36:08.214Z,99.90
2018-12-18T23:38:38.936Z,99.90
2018-12-18T23:41:10.996Z,99.90
2018-12-18T23:43:41.809Z,99.90
2018-12-18T23:46:12.438Z,99.90
2018-12-18T23:48:43.138Z,99.90
2018-12-18T23:51:13.855Z,99.90
2018-12-18T23:53:45.174Z,99.90
2018-12-18T23:56:15.796Z,99.90
2018-12-18T23:58:46.998Z,99.90
